createdAt,value
2019-01-26T00:00:34.614Z,24.60
2019-01-26T00:03:03.037Z,25.73
2019-01-26T00:05:31.488Z,31.20
2019-01-26T00:07:59.899Z,28.20
2019-01-26T00:10:33.549Z,26.87
2019-01-26T00:13:01.987Z,27.00
2019-01-26T00:15:30.528Z,27.03
2019-01-26T00:17:59.046Z,29.40
2019-01-26T00:20:27.537Z,24.70
2019-01-26T00:22:56.022Z,26.90
2019-01-26T00:25:24.510Z,24.47
2019-01-26T00:27:52.955Z,25.93
2019-01-26T00:30:21.502Z,25.50
2019-01-26T00:32:49.928Z,26.50
2019-01-26T00:35:18.496Z,26.03
2019-01-26T00:37:46.933Z,26.37
2019-01-26T00:40:17.032Z,26.43
2019-01-26T00:42:45.515Z,26.03
2019-01-26T00:45:14.381Z,25.03
2019-01-26T00:47:42.861Z,19.27
2019-01-26T00:50:13.684Z,23.37
2019-01-26T00:52:42.124Z,21.07
2019-01-26T00:55:11.174Z,22.33
2019-01-26T00:57:39.773Z,22.97
2019-01-26T01:00:11.467Z,22.43
2019-01-26T01:02:39.906Z,23.77
2019-01-26T01:05:09.319Z,22.43
2019-01-26T01:07:37.934Z,22.33
2019-01-26T01:10:09.530Z,24.73
2019-01-26T01:12:38.054Z,24.87
2019-01-26T01:15:10.017Z,26.07
2019-01-26T01:17:38.481Z,22.93
2019-01-26T01:20:09.586Z,24.90
2019-01-26T01:22:38.046Z,26.37
2019-01-26T01:25:09.066Z,26.20
2019-01-26T01:27:37.651Z,28.70
2019-01-26T01:30:15.451Z,26.10
2019-01-26T01:32:43.880Z,24.23
2019-01-26T01:35:12.392Z,24.90
2019-01-26T01:37:40.891Z,23.37
2019-01-26T01:40:11.956Z,23.70
2019-01-26T01:42:41.391Z,24.40
2019-01-26T01:45:16.012Z,22.23
2019-01-26T01:47:44.553Z,22.97
2019-01-26T01:50:13.683Z,25.33
2019-01-26T01:56:17.786Z,25.90
2019-01-26T01:58:46.249Z,24.10
2019-01-26T02:01:14.660Z,29.97
2019-01-26T02:03:43.095Z,27.47
2019-01-26T02:06:11.523Z,30.23
2019-01-26T02:08:39.972Z,30.00
2019-01-26T02:11:08.454Z,28.93
2019-01-26T02:13:36.904Z,27.23
2019-01-26T02:16:05.473Z,30.33
2019-01-26T02:18:33.900Z,27.40
2019-01-26T02:21:02.892Z,25.63
2019-01-26T02:23:31.335Z,25.00
2019-01-26T02:25:59.825Z,26.47
2019-01-26T02:28:28.514Z,25.33
2019-01-26T02:30:57.113Z,23.07
2019-01-26T02:33:25.600Z,20.73
2019-01-26T02:35:54.251Z,24.93
2019-01-26T02:38:22.998Z,25.77
2019-01-26T02:40:52.387Z,23.80
2019-01-26T02:43:21.112Z,21.03
2019-01-26T02:45:49.552Z,24.27
2019-01-26T02:48:18.020Z,19.03
2019-01-26T02:50:46.447Z,21.17
2019-01-26T02:53:14.909Z,21.80
2019-01-26T02:55:43.364Z,18.33
2019-01-26T02:58:11.816Z,21.60
2019-01-26T03:00:40.324Z,18.80
2019-01-26T03:03:08.772Z,19.37
2019-01-26T03:05:37.195Z,19.73
2019-01-26T03:08:05.634Z,18.63
2019-01-26T03:10:34.421Z,19.20
2019-01-26T03:13:02.836Z,19.83
2019-01-26T03:15:31.301Z,19.93
2019-01-26T03:17:59.727Z,16.73
2019-01-26T03:20:28.140Z,17.77
2019-01-26T03:22:56.586Z,18.57
2019-01-26T03:25:24.991Z,17.70
2019-01-26T03:27:53.418Z,17.83
2019-01-26T03:30:24.256Z,19.57
2019-01-26T03:32:53.025Z,19.37
2019-01-26T03:35:21.509Z,20.63
2019-01-26T03:37:49.948Z,18.87
2019-01-26T03:40:22.587Z,22.03
2019-01-26T03:42:51.102Z,21.73
2019-01-26T03:45:20.054Z,19.57
2019-01-26T03:47:48.807Z,18.30
2019-01-26T03:50:17.507Z,18.23
2019-01-26T03:52:46.187Z,19.73
2019-01-26T03:55:17.780Z,17.07
2019-01-26T03:57:46.435Z,19.77
2019-01-26T04:00:17.857Z,16.87
2019-01-26T04:02:46.425Z,17.57
2019-01-26T04:05:15.059Z,17.30
2019-01-26T04:07:43.610Z,19.87
2019-01-26T04:10:14.161Z,19.63
2019-01-26T04:12:42.581Z,17.80
2019-01-26T04:15:19.402Z,17.57
2019-01-26T04:17:48.137Z,17.27
2019-01-26T04:20:18.549Z,16.20
2019-01-26T04:22:47.114Z,19.53
2019-01-26T04:25:15.621Z,17.20
2019-01-26T04:27:44.038Z,20.83
2019-01-26T04:30:15.196Z,19.67
2019-01-26T04:32:43.617Z,21.70
2019-01-26T04:35:12.204Z,18.80
2019-01-26T04:37:40.695Z,20.37
2019-01-26T04:40:14.266Z,20.20
2019-01-26T04:42:42.725Z,20.50
2019-01-26T04:45:14.215Z,21.07
2019-01-26T04:47:42.771Z,21.27
2019-01-26T04:50:13.782Z,19.47
2019-01-26T04:52:42.194Z,21.57
2019-01-26T04:55:12.454Z,21.30
2019-01-26T04:57:40.873Z,21.97
2019-01-26T05:00:12.393Z,26.33
2019-01-26T05:02:40.820Z,27.40
2019-01-26T05:05:09.311Z,23.93
2019-01-26T05:07:37.736Z,22.70
2019-01-26T05:10:09.245Z,24.00
2019-01-26T05:12:37.639Z,28.10
2019-01-26T05:15:08.942Z,24.57
2019-01-26T05:17:39.510Z,26.40
2019-01-26T05:20:16.375Z,28.37
2019-01-26T05:22:44.782Z,26.20
2019-01-26T05:25:13.972Z,26.23
2019-01-26T05:27:42.398Z,27.77
2019-01-26T05:30:14.083Z,31.63
2019-01-26T05:32:42.579Z,33.50
2019-01-26T05:35:11.144Z,31.80
2019-01-26T05:37:39.554Z,25.53
2019-01-26T05:40:13.314Z,28.67
2019-01-26T05:42:41.728Z,28.53
2019-01-26T05:45:13.160Z,27.60
2019-01-26T05:47:48.324Z,30.33
2019-01-26T05:50:15.111Z,24.77
2019-01-26T05:52:43.525Z,29.63
2019-01-26T05:55:12.052Z,26.07
2019-01-26T05:57:40.493Z,26.10
2019-01-26T06:00:15.013Z,28.03
2019-01-26T06:02:43.520Z,26.00
2019-01-26T06:05:12.097Z,30.27
2019-01-26T06:07:40.525Z,27.17
2019-01-26T06:10:09.398Z,28.23
2019-01-26T06:12:37.888Z,29.93
2019-01-26T06:15:09.697Z,27.43
2019-01-26T06:17:38.117Z,27.30
2019-01-26T06:20:09.876Z,25.73
2019-01-26T06:22:38.312Z,29.67
2019-01-26T06:25:09.985Z,28.13
2019-01-26T06:27:38.417Z,25.13
2019-01-26T06:30:12.774Z,28.87
2019-01-26T06:32:41.185Z,28.63
2019-01-26T06:35:09.802Z,28.87
2019-01-26T06:37:38.225Z,27.77
2019-01-26T06:40:09.697Z,28.93
2019-01-26T06:42:38.259Z,28.03
2019-01-26T06:45:09.126Z,34.43
2019-01-26T06:47:37.549Z,30.80
2019-01-26T06:50:09.305Z,28.77
2019-01-26T06:52:37.709Z,33.87
2019-01-26T06:55:08.808Z,30.37
2019-01-26T06:57:37.308Z,28.30
2019-01-26T07:00:08.808Z,32.67
2019-01-26T07:02:37.241Z,34.53
2019-01-26T07:05:09.352Z,29.00
2019-01-26T07:07:37.776Z,30.03
2019-01-26T07:10:09.030Z,27.70
2019-01-26T07:12:37.458Z,30.93
2019-01-26T07:15:09.046Z,28.83
2019-01-26T07:17:37.454Z,28.33
2019-01-26T07:20:08.946Z,31.40
2019-01-26T07:22:37.386Z,24.77
2019-01-26T07:25:06.267Z,33.53
2019-01-26T07:27:34.751Z,29.40
2019-01-26T07:30:04.754Z,24.97
2019-01-26T07:32:33.169Z,29.47
2019-01-26T07:35:07.626Z,23.60
2019-01-26T07:37:36.203Z,21.23
2019-01-26T07:40:07.868Z,25.57
2019-01-26T07:42:36.411Z,20.70
2019-01-26T07:45:08.358Z,22.80
2019-01-26T07:47:36.911Z,21.93
2019-01-26T07:50:08.797Z,18.00
2019-01-26T07:52:37.220Z,23.87
2019-01-26T07:55:09.140Z,20.87
2019-01-26T07:57:37.876Z,21.80
2019-01-26T08:00:24.527Z,15.40
2019-01-26T08:02:52.933Z,20.90
2019-01-26T08:05:21.368Z,18.20
2019-01-26T08:07:49.782Z,17.50
2019-01-26T08:10:22.855Z,17.90
2019-01-26T08:12:51.416Z,17.00
2019-01-26T08:15:22.373Z,17.07
2019-01-26T08:17:50.799Z,19.87
2019-01-26T08:20:20.994Z,18.13
2019-01-26T08:22:49.423Z,16.40
2019-01-26T08:25:18.117Z,16.00
2019-01-26T08:27:46.563Z,17.23
2019-01-26T08:30:17.655Z,19.37
2019-01-26T08:32:46.174Z,22.40
2019-01-26T08:35:14.599Z,22.57
2019-01-26T08:37:43.099Z,19.13
2019-01-26T08:40:13.947Z,19.83
2019-01-26T08:42:42.556Z,18.33
2019-01-26T08:45:12.822Z,16.97
2019-01-26T08:47:41.256Z,15.93
2019-01-26T08:50:15.388Z,19.03
2019-01-26T08:52:43.969Z,18.07
2019-01-26T08:55:18.055Z,19.50
2019-01-26T08:57:44.173Z,19.27
2019-01-26T09:00:16.781Z,19.20
2019-01-26T09:02:46.957Z,21.10
2019-01-26T09:05:16.359Z,19.17
2019-01-26T09:07:44.917Z,21.73
2019-01-26T09:10:13.315Z,20.70
2019-01-26T09:12:41.752Z,28.13
2019-01-26T09:15:10.636Z,21.57
2019-01-26T09:17:39.067Z,19.53
2019-01-26T09:20:12.988Z,24.63
2019-01-26T09:22:41.438Z,21.10
2019-01-26T09:25:11.205Z,28.53
2019-01-26T09:27:39.878Z,21.17
2019-01-26T09:30:18.978Z,40.10
2019-01-26T09:32:47.485Z,28.37
2019-01-26T09:39:39.816Z,23.57
2019-01-26T09:42:08.337Z,21.07
2019-01-26T09:44:36.796Z,23.37
2019-01-26T09:47:05.463Z,21.37
2019-01-26T09:49:33.954Z,19.67
2019-01-26T09:52:02.465Z,19.57
2019-01-26T09:54:30.928Z,18.03
2019-01-26T09:56:59.410Z,19.87
2019-01-26T09:59:27.856Z,18.07
2019-01-26T10:01:56.362Z,19.17
2019-01-26T10:04:24.828Z,18.67
2019-01-26T10:06:53.347Z,17.27
2019-01-26T10:09:21.902Z,18.97
2019-01-26T10:11:50.408Z,15.63
2019-01-26T10:14:18.856Z,17.37
2019-01-26T10:16:47.336Z,15.30
2019-01-26T10:19:15.778Z,13.63
2019-01-26T10:21:44.257Z,16.50
2019-01-26T10:24:12.723Z,19.67
2019-01-26T10:26:41.189Z,13.37
2019-01-26T10:29:09.675Z,15.43
2019-01-26T10:31:38.180Z,15.20
2019-01-26T10:34:06.657Z,14.60
2019-01-26T10:36:36.750Z,17.50
2019-01-26T10:39:08.029Z,15.20
2019-01-26T10:41:38.138Z,15.03
2019-01-26T10:44:06.906Z,16.50
2019-01-26T10:46:35.341Z,14.07
2019-01-26T10:49:03.845Z,14.90
2019-01-26T10:51:32.281Z,16.70
2019-01-26T10:54:00.742Z,16.13
2019-01-26T10:56:29.184Z,14.40
2019-01-26T10:58:57.669Z,12.10
2019-01-26T11:01:26.141Z,12.40
2019-01-26T11:03:54.637Z,13.73
2019-01-26T11:06:23.141Z,12.50
2019-01-26T11:08:51.694Z,11.33
2019-01-26T11:11:20.212Z,10.30
2019-01-26T11:13:48.733Z,11.13
2019-01-26T11:16:17.194Z,13.30
2019-01-26T11:18:45.736Z,12.83
2019-01-26T11:21:14.206Z,14.67
2019-01-26T11:23:42.761Z,13.17
2019-01-26T11:26:11.224Z,13.27
2019-01-26T11:28:39.740Z,12.53
2019-01-26T11:31:09.143Z,12.63
2019-01-26T11:33:37.678Z,13.50
2019-01-26T11:36:06.365Z,14.97
2019-01-26T11:38:34.874Z,12.77
2019-01-26T11:41:03.332Z,14.97
2019-01-26T11:43:31.953Z,13.77
2019-01-26T11:46:04.874Z,15.23
2019-01-26T11:48:34.993Z,15.33
2019-01-26T11:51:10.798Z,17.63
2019-01-26T11:53:39.320Z,16.40
2019-01-26T11:56:09.450Z,12.90
2019-01-26T11:58:37.955Z,15.47
2019-01-26T12:01:08.273Z,13.23
2019-01-26T12:03:47.291Z,16.27
2019-01-26T12:06:23.715Z,15.60
2019-01-26T12:08:52.379Z,12.27
2019-01-26T12:11:20.833Z,13.00
2019-01-26T12:13:49.315Z,10.57
2019-01-26T12:16:17.770Z,11.77
2019-01-26T12:18:46.377Z,10.87
2019-01-26T12:21:14.825Z,10.40
2019-01-26T12:23:43.437Z,10.77
2019-01-26T12:26:11.896Z,10.93
2019-01-26T12:28:40.418Z,10.67
2019-01-26T12:31:08.904Z,13.33
2019-01-26T12:33:37.454Z,10.67
2019-01-26T12:36:06.075Z,11.67
2019-01-26T12:38:34.587Z,11.40
2019-01-26T12:41:03.041Z,11.23
2019-01-26T12:43:31.588Z,9.77
2019-01-26T12:46:00.082Z,10.97
2019-01-26T12:48:28.587Z,12.17
2019-01-26T12:50:57.066Z,9.77
2019-01-26T12:53:25.577Z,13.07
2019-01-26T12:55:54.097Z,11.40
2019-01-26T12:58:22.598Z,11.67
2019-01-26T13:00:51.052Z,10.10
2019-01-26T13:03:19.509Z,11.67
2019-01-26T13:05:48.387Z,10.80
2019-01-26T13:08:16.895Z,10.07
2019-01-26T13:10:51.819Z,13.47
2019-01-26T13:13:20.347Z,11.53
2019-01-26T13:15:48.938Z,12.97
2019-01-26T13:18:17.615Z,13.27
2019-01-26T13:20:46.104Z,14.13
2019-01-26T13:23:14.585Z,14.93
2019-01-26T13:25:43.166Z,13.93
2019-01-26T13:28:11.779Z,14.30
2019-01-26T13:30:40.288Z,16.37
2019-01-26T13:33:08.743Z,13.53
2019-01-26T13:35:37.258Z,17.17
2019-01-26T13:38:05.729Z,14.03
2019-01-26T13:40:36.068Z,12.37
2019-01-26T13:43:05.052Z,12.73
2019-01-26T13:45:33.627Z,14.60
2019-01-26T13:48:02.119Z,10.80
2019-01-26T13:50:30.691Z,13.63
2019-01-26T13:52:59.130Z,11.37
2019-01-26T13:55:27.710Z,10.13
2019-01-26T13:57:56.169Z,13.33
2019-01-26T14:00:32.353Z,10.43
2019-01-26T14:03:00.875Z,10.53
2019-01-26T14:05:29.417Z,11.13
2019-01-26T14:08:17.468Z,11.37
2019-01-26T14:10:45.937Z,11.57
2019-01-26T14:13:14.348Z,10.80
2019-01-26T14:15:42.824Z,11.03
2019-01-26T14:18:11.221Z,14.10
2019-01-26T14:20:39.681Z,14.13
2019-01-26T14:23:08.089Z,15.37
2019-01-26T14:25:36.664Z,15.37
2019-01-26T14:28:05.092Z,14.80
2019-01-26T14:30:36.890Z,15.53
2019-01-26T14:33:05.771Z,15.67
2019-01-26T14:35:34.328Z,13.93
2019-01-26T14:38:02.848Z,14.10
2019-01-26T14:40:31.371Z,12.43
2019-01-26T14:42:59.868Z,13.60
2019-01-26T14:45:29.344Z,11.50
2019-01-26T14:47:57.771Z,13.50
2019-01-26T14:50:26.216Z,13.80
2019-01-26T14:52:54.632Z,11.50
2019-01-26T14:55:25.411Z,12.87
2019-01-26T14:57:53.838Z,13.27
2019-01-26T15:00:25.141Z,12.97
2019-01-26T15:02:53.622Z,11.97
2019-01-26T15:05:22.147Z,12.77
2019-01-26T15:07:50.568Z,12.37
2019-01-26T15:10:19.104Z,13.27
2019-01-26T15:12:47.532Z,12.70
2019-01-26T15:15:18.660Z,14.13
2019-01-26T15:17:50.137Z,14.37
2019-01-26T15:20:24.437Z,12.80
2019-01-26T15:22:52.861Z,13.17
2019-01-26T15:25:21.393Z,13.10
2019-01-26T15:27:49.888Z,11.43
2019-01-26T15:30:24.089Z,14.97
2019-01-26T15:32:52.566Z,15.13
2019-01-26T15:35:21.049Z,12.73
2019-01-26T15:37:49.598Z,12.93
2019-01-26T15:40:18.048Z,14.30
2019-01-26T15:42:46.489Z,15.10
2019-01-26T15:45:23.466Z,17.13
2019-01-26T15:47:51.878Z,16.27
2019-01-26T15:50:20.428Z,14.53
2019-01-26T15:52:48.835Z,14.43
2019-01-26T15:55:20.175Z,13.60
2019-01-26T15:57:48.595Z,12.47
2019-01-26T16:00:25.044Z,14.00
2019-01-26T16:02:53.539Z,10.17
2019-01-26T16:05:21.973Z,11.67
2019-01-26T16:07:50.371Z,10.43
2019-01-26T16:10:23.711Z,12.17
2019-01-26T16:12:52.242Z,8.53
2019-01-26T16:15:23.213Z,8.50
2019-01-26T16:17:51.818Z,9.57
2019-01-26T16:20:21.066Z,9.60
2019-01-26T16:22:49.571Z,8.13
2019-01-26T16:25:18.725Z,6.23
2019-01-26T16:27:47.184Z,6.90
2019-01-26T16:30:39.578Z,7.87
2019-01-26T16:33:08.102Z,7.00
2019-01-26T16:35:36.619Z,10.07
2019-01-26T16:38:05.501Z,7.57
2019-01-26T16:40:35.472Z,9.37
2019-01-26T16:43:04.329Z,9.93
2019-01-26T16:45:34.998Z,8.00
2019-01-26T16:48:03.953Z,8.00
2019-01-26T16:50:32.468Z,12.90
2019-01-26T16:53:01.243Z,10.60
2019-01-26T16:55:29.764Z,9.30
2019-01-26T16:57:58.258Z,8.77
2019-01-26T17:00:29.790Z,8.73
2019-01-26T17:02:58.277Z,6.50
2019-01-26T17:05:26.818Z,8.30
2019-01-26T17:07:55.289Z,8.53
2019-01-26T17:10:23.771Z,7.17
2019-01-26T17:13:11.640Z,7.87
2019-01-26T17:15:40.051Z,6.63
2019-01-26T17:18:13.665Z,7.50
2019-01-26T17:20:41.040Z,6.73
2019-01-26T17:23:09.492Z,6.73
2019-01-26T17:25:37.907Z,5.77
2019-01-26T17:28:06.409Z,5.90
2019-01-26T17:30:40.050Z,6.37
2019-01-26T17:33:08.719Z,6.50
2019-01-26T17:35:37.479Z,7.30
2019-01-26T17:38:06.161Z,7.60
2019-01-26T17:40:34.632Z,6.63
2019-01-26T17:46:09.222Z,7.53
2019-01-26T17:48:37.722Z,7.63
2019-01-26T17:51:06.221Z,7.87
2019-01-26T17:53:34.796Z,6.43
2019-01-26T17:56:03.295Z,6.87
2019-01-26T17:58:31.798Z,7.93
2019-01-26T18:01:00.327Z,6.73
2019-01-26T18:03:28.943Z,7.10
2019-01-26T18:05:57.375Z,7.83
2019-01-26T18:08:25.873Z,7.70
2019-01-26T18:10:54.361Z,8.73
2019-01-26T18:13:22.834Z,8.67
2019-01-26T18:15:51.416Z,9.40
2019-01-26T18:18:19.848Z,8.37
2019-01-26T18:20:49.416Z,8.20
2019-01-26T18:23:45.562Z,10.53
2019-01-26T18:26:14.014Z,7.97
2019-01-26T18:28:42.506Z,9.63
2019-01-26T18:31:10.962Z,9.23
2019-01-26T18:33:39.479Z,9.33
2019-01-26T18:36:07.987Z,8.13
2019-01-26T18:38:36.476Z,9.20
2019-01-26T18:41:05.038Z,8.57
2019-01-26T18:43:33.519Z,8.07
2019-01-26T18:46:01.978Z,7.87
2019-01-26T18:48:30.510Z,7.50
2019-01-26T18:50:59.017Z,6.87
2019-01-26T18:53:27.473Z,7.73
2019-01-26T18:55:55.925Z,8.67
2019-01-26T18:58:24.393Z,7.03
2019-01-26T19:00:52.818Z,6.60
2019-01-26T19:03:27.191Z,7.13
2019-01-26T19:05:58.187Z,6.93
2019-01-26T19:08:26.740Z,6.30
2019-01-26T19:10:55.223Z,8.50
2019-01-26T19:13:23.711Z,6.37
2019-01-26T19:15:52.157Z,6.70
2019-01-26T19:18:20.647Z,7.57
2019-01-26T19:20:49.305Z,6.03
2019-01-26T19:23:17.780Z,5.73
2019-01-26T19:25:46.267Z,6.50
2019-01-26T19:28:14.718Z,5.70
2019-01-26T19:30:43.198Z,5.80
2019-01-26T19:33:11.681Z,5.80
2019-01-26T19:35:40.139Z,6.33
2019-01-26T19:38:08.631Z,5.67
2019-01-26T19:40:37.071Z,6.97
2019-01-26T19:43:05.544Z,5.10
2019-01-26T19:45:33.979Z,6.53
2019-01-26T19:48:02.463Z,6.73
2019-01-26T19:50:30.921Z,7.03
2019-01-26T19:52:59.372Z,7.30
2019-01-26T19:55:27.885Z,5.93
2019-01-26T19:57:56.338Z,7.00
2019-01-26T20:00:24.818Z,6.80
2019-01-26T20:02:53.455Z,6.77
2019-01-26T20:05:23.778Z,7.70
2019-01-26T20:08:14.431Z,7.03
2019-01-26T20:10:43.054Z,7.67
2019-01-26T20:13:11.490Z,8.23
2019-01-26T20:15:39.984Z,6.53
2019-01-26T20:18:08.500Z,7.50
2019-01-26T20:20:40.616Z,6.10
2019-01-26T20:23:09.131Z,8.37
2019-01-26T20:25:37.600Z,7.17
2019-01-26T20:28:06.107Z,5.87
2019-01-26T20:30:35.443Z,7.77
2019-01-26T20:33:04.113Z,9.10
2019-01-26T20:35:32.641Z,7.43
2019-01-26T20:38:01.076Z,6.90
2019-01-26T20:40:29.649Z,7.60
2019-01-26T20:42:58.115Z,6.73
2019-01-26T20:45:28.808Z,6.07
2019-01-26T20:47:57.345Z,5.60
2019-01-26T20:50:38.579Z,6.00
2019-01-26T20:53:02.487Z,6.50
2019-01-26T20:55:31.005Z,6.13
2019-01-26T20:58:05.756Z,8.13
2019-01-26T21:00:34.332Z,7.00
2019-01-26T21:03:02.832Z,7.60
2019-01-26T21:05:31.305Z,6.60
2019-01-26T21:07:59.784Z,7.40
2019-01-26T21:10:29.711Z,6.97
2019-01-26T21:12:59.007Z,7.67
2019-01-26T21:15:27.860Z,8.03
2019-01-26T21:17:56.389Z,8.07
2019-01-26T21:20:26.597Z,8.10
2019-01-26T21:22:55.014Z,7.60
2019-01-26T21:25:23.880Z,7.33
2019-01-26T21:28:07.590Z,7.50
2019-01-26T21:30:48.376Z,6.00
2019-01-26T21:33:19.912Z,7.00
2019-01-26T21:35:48.412Z,6.87
2019-01-26T21:38:16.838Z,6.33
2019-01-26T21:40:45.318Z,6.63
2019-01-26T21:43:13.798Z,6.90
2019-01-26T21:45:42.343Z,6.40
2019-01-26T21:48:10.785Z,7.97
2019-01-26T21:50:39.299Z,8.43
2019-01-26T21:53:07.889Z,7.10
2019-01-26T21:55:36.386Z,6.50
2019-01-26T21:58:05.486Z,5.97
2019-01-26T22:00:34.227Z,7.37
2019-01-26T22:03:02.722Z,6.77
2019-01-26T22:05:31.340Z,5.33
2019-01-26T22:07:59.867Z,8.60
2019-01-26T22:10:28.882Z,7.67
2019-01-26T22:12:57.380Z,6.80
2019-01-26T22:15:26.095Z,7.00
2019-01-26T22:17:54.610Z,8.23
2019-01-26T22:20:27.813Z,8.10
2019-01-26T22:22:56.748Z,7.33
2019-01-26T22:25:25.400Z,6.93
2019-01-26T22:27:54.703Z,7.97
2019-01-26T22:30:28.953Z,7.03
2019-01-26T22:32:57.482Z,7.10
2019-01-26T22:35:26.032Z,6.93
2019-01-26T22:37:54.558Z,7.03
2019-01-26T22:40:28.457Z,7.73
2019-01-26T22:42:56.968Z,7.13
2019-01-26T22:45:25.977Z,8.00
2019-01-26T22:47:54.420Z,7.33
2019-01-26T22:50:25.306Z,7.10
2019-01-26T22:52:53.989Z,8.20
2019-01-26T22:55:22.493Z,8.47
2019-01-26T22:57:51.091Z,7.10
2019-01-26T23:00:53.218Z,6.47
2019-01-26T23:03:39.919Z,7.27
2019-01-26T23:06:14.140Z,7.33
2019-01-26T23:08:42.625Z,9.10
2019-01-26T23:11:16.693Z,7.47
2019-01-26T23:13:50.743Z,9.23
2019-01-26T23:16:43.089Z,8.10
2019-01-26T23:19:26.110Z,6.47
2019-01-26T23:22:12.773Z,6.50
2019-01-26T23:24:44.259Z,7.17
2019-01-26T23:27:30.740Z,8.47
2019-01-26T23:30:21.846Z,8.20
2019-01-26T23:32:50.306Z,7.57
2019-01-26T23:35:18.886Z,8.13
2019-01-26T23:37:47.420Z,7.27
2019-01-26T23:40:15.899Z,6.17
2019-01-26T23:42:44.333Z,5.87
2019-01-26T23:45:12.817Z,7.33
2019-01-26T23:47:41.263Z,8.20
2019-01-26T23:50:09.751Z,7.73
2019-01-26T23:52:38.270Z,5.27
2019-01-26T23:55:09.351Z,4.27
2019-01-26T23:57:37.911Z,5.87
